sensor_id;sensor_type;location;lat;lon;timestamp;P1;durP1;ratioP1;P2;durP2;ratioP2
56599;SDS011;51832;48.152;11.530;2022-07-23T00:02:18;7.55;;;6.82;;
56599;SDS011;51832;48.152;11.530;2022-07-23T00:07:19;8.50;;;7.60;;
56599;SDS011;51832;48.152;11.530;2022-07-23T00:12:19;9.67;;;8.00;;
56599;SDS011;51832;48.152;11.530;2022-07-23T00:17:20;7.90;;;6.97;;
56599;SDS011;51832;48.152;11.530;2022-07-23T00:22:21;7.93;;;7.13;;
56599;SDS011;51832;48.152;11.530;2022-07-23T00:27:21;7.75;;;6.40;;
56599;SDS011;51832;48.152;11.530;2022-07-23T00:32:21;8.07;;;7.28;;
56599;SDS011;51832;48.152;11.530;2022-07-23T00:37:22;7.90;;;7.17;;
56599;SDS011;51832;48.152;11.530;2022-07-23T00:42:22;8.30;;;6.80;;
56599;SDS011;51832;48.152;11.530;2022-07-23T00:47:23;9.00;;;7.57;;
56599;SDS011;51832;48.152;11.530;2022-07-23T00:52:23;9.20;;;7.77;;
56599;SDS011;51832;48.152;11.530;2022-07-23T00:57:24;9.38;;;7.68;;
56599;SDS011;51832;48.152;11.530;2022-07-23T01:02:25;7.75;;;7.03;;
56599;SDS011;51832;48.152;11.530;2022-07-23T01:07:27;7.97;;;7.23;;
56599;SDS011;51832;48.152;11.530;2022-07-23T01:12:28;8.93;;;7.25;;
56599;SDS011;51832;48.152;11.530;2022-07-23T01:17:28;10.30;;;8.47;;
56599;SDS011;51832;48.152;11.530;2022-07-23T01:22:29;13.73;;;8.30;;
56599;SDS011;51832;48.152;11.530;2022-07-23T01:27:29;10.95;;;8.10;;
56599;SDS011;51832;48.152;11.530;2022-07-23T01:32:30;12.07;;;7.47;;
56599;SDS011;51832;48.152;11.530;2022-07-23T01:37:30;8.20;;;6.18;;
56599;SDS011;51832;48.152;11.530;2022-07-23T01:42:31;6.85;;;6.07;;
56599;SDS011;51832;48.152;11.530;2022-07-23T01:47:31;8.13;;;7.32;;
56599;SDS011;51832;48.152;11.530;2022-07-23T01:52:32;9.13;;;7.20;;
56599;SDS011;51832;48.152;11.530;2022-07-23T01:57:32;8.95;;;7.57;;
56599;SDS011;51832;48.152;11.530;2022-07-23T02:02:33;9.15;;;6.97;;
56599;SDS011;51832;48.152;11.530;2022-07-23T02:07:33;8.85;;;6.80;;
56599;SDS011;51832;48.152;11.530;2022-07-23T02:12:34;7.85;;;6.18;;
56599;SDS011;51832;48.152;11.530;2022-07-23T02:17:34;9.85;;;6.65;;
56599;SDS011;51832;48.152;11.530;2022-07-23T02:22:35;8.10;;;5.68;;
56599;SDS011;51832;48.152;11.530;2022-07-23T02:27:36;6.13;;;5.38;;
56599;SDS011;51832;48.152;11.530;2022-07-23T02:32:37;5.68;;;5.03;;
56599;SDS011;51832;48.152;11.530;2022-07-23T02:37:39;4.90;;;4.40;;
56599;SDS011;51832;48.152;11.530;2022-07-23T02:42:40;4.13;;;3.28;;
56599;SDS011;51832;48.152;11.530;2022-07-23T02:47:40;5.47;;;3.58;;
56599;SDS011;51832;48.152;11.530;2022-07-23T02:52:41;5.38;;;3.50;;
56599;SDS011;51832;48.152;11.530;2022-07-23T02:57:41;4.28;;;3.88;;
56599;SDS011;51832;48.152;11.530;2022-07-23T03:02:42;6.97;;;4.10;;
56599;SDS011;51832;48.152;11.530;2022-07-23T03:07:42;6.13;;;3.88;;
56599;SDS011;51832;48.152;11.530;2022-07-23T03:12:43;5.53;;;4.10;;
56599;SDS011;51832;48.152;11.530;2022-07-23T03:17:43;4.80;;;4.05;;
56599;SDS011;51832;48.152;11.530;2022-07-23T03:22:44;4.63;;;4.20;;
56599;SDS011;51832;48.152;11.530;2022-07-23T03:27:44;5.03;;;4.47;;
56599;SDS011;51832;48.152;11.530;2022-07-23T03:32:45;6.55;;;4.80;;
56599;SDS011;51832;48.152;11.530;2022-07-23T03:37:45;5.90;;;5.00;;
56599;SDS011;51832;48.152;11.530;2022-07-23T03:42:46;5.22;;;4.63;;
56599;SDS011;51832;48.152;11.530;2022-07-23T03:47:46;5.57;;;4.70;;
56599;SDS011;51832;48.152;11.530;2022-07-23T03:52:47;5.40;;;4.53;;
56599;SDS011;51832;48.152;11.530;2022-07-23T03:57:48;8.23;;;5.28;;
56599;SDS011;51832;48.152;11.530;2022-07-23T04:02:48;5.43;;;4.93;;
56599;SDS011;51832;48.152;11.530;2022-07-23T04:07:49;5.63;;;4.88;;
56599;SDS011;51832;48.152;11.530;2022-07-23T04:12:49;8.88;;;5.03;;
56599;SDS011;51832;48.152;11.530;2022-07-23T04:17:50;6.47;;;5.22;;
56599;SDS011;51832;48.152;11.530;2022-07-23T04:22:50;5.78;;;4.78;;
56599;SDS011;51832;48.152;11.530;2022-07-23T04:27:50;5.60;;;5.00;;
56599;SDS011;51832;48.152;11.530;2022-07-23T04:32:51;7.60;;;5.13;;
56599;SDS011;51832;48.152;11.530;2022-07-23T04:37:51;5.60;;;4.95;;
56599;SDS011;51832;48.152;11.530;2022-07-23T04:42:52;6.10;;;4.97;;
56599;SDS011;51832;48.152;11.530;2022-07-23T04:47:53;6.53;;;5.43;;
56599;SDS011;51832;48.152;11.530;2022-07-23T04:52:53;6.30;;;5.43;;
56599;SDS011;51832;48.152;11.530;2022-07-23T04:57:54;8.38;;;5.70;;
56599;SDS011;51832;48.152;11.530;2022-07-23T05:02:54;7.03;;;5.60;;
56599;SDS011;51832;48.152;11.530;2022-07-23T05:07:55;7.22;;;5.20;;
56599;SDS011;51832;48.152;11.530;2022-07-23T05:12:55;7.53;;;5.40;;
56599;SDS011;51832;48.152;11.530;2022-07-23T05:17:56;5.82;;;5.32;;
56599;SDS011;51832;48.152;11.530;2022-07-23T05:22:56;7.10;;;5.88;;
56599;SDS011;51832;48.152;11.530;2022-07-23T05:27:57;8.05;;;5.63;;
56599;SDS011;51832;48.152;11.530;2022-07-23T05:32:57;6.05;;;5.45;;
56599;SDS011;51832;48.152;11.530;2022-07-23T05:37:58;6.00;;;5.38;;
56599;SDS011;51832;48.152;11.530;2022-07-23T05:42:58;6.15;;;5.47;;
56599;SDS011;51832;48.152;11.530;2022-07-23T05:47:59;5.45;;;4.95;;
56599;SDS011;51832;48.152;11.530;2022-07-23T05:52:59;5.88;;;5.38;;
56599;SDS011;51832;48.152;11.530;2022-07-23T05:58:00;6.43;;;5.72;;
56599;SDS011;51832;48.152;11.530;2022-07-23T06:03:00;6.78;;;6.07;;
56599;SDS011;51832;48.152;11.530;2022-07-23T06:08:01;7.68;;;5.65;;
56599;SDS011;51832;48.152;11.530;2022-07-23T06:13:01;7.13;;;6.40;;
56599;SDS011;51832;48.152;11.530;2022-07-23T06:18:02;6.28;;;5.68;;
56599;SDS011;51832;48.152;11.530;2022-07-23T06:23:03;6.45;;;5.85;;
56599;SDS011;51832;48.152;11.530;2022-07-23T06:28:04;7.65;;;5.95;;
56599;SDS011;51832;48.152;11.530;2022-07-23T06:33:05;6.50;;;5.90;;
56599;SDS011;51832;48.152;11.530;2022-07-23T06:38:05;7.88;;;6.30;;
56599;SDS011;51832;48.152;11.530;2022-07-23T06:43:06;8.50;;;6.22;;
56599;SDS011;51832;48.152;11.530;2022-07-23T06:48:06;6.82;;;6.10;;
56599;SDS011;51832;48.152;11.530;2022-07-23T06:53:07;9.63;;;6.28;;
56599;SDS011;51832;48.152;11.530;2022-07-23T06:58:07;7.60;;;6.27;;
56599;SDS011;51832;48.152;11.530;2022-07-23T07:03:09;8.45;;;6.75;;
56599;SDS011;51832;48.152;11.530;2022-07-23T07:08:09;9.63;;;6.60;;
56599;SDS011;51832;48.152;11.530;2022-07-23T07:13:09;8.27;;;6.60;;
56599;SDS011;51832;48.152;11.530;2022-07-23T07:18:10;7.83;;;7.00;;
56599;SDS011;51832;48.152;11.530;2022-07-23T07:23:10;9.40;;;6.97;;
56599;SDS011;51832;48.152;11.530;2022-07-23T07:28:12;7.65;;;6.85;;
56599;SDS011;51832;48.152;11.530;2022-07-23T07:33:13;8.63;;;7.20;;
56599;SDS011;51832;48.152;11.530;2022-07-23T07:38:13;8.50;;;7.53;;
56599;SDS011;51832;48.152;11.530;2022-07-23T07:43:14;8.30;;;7.25;;
56599;SDS011;51832;48.152;11.530;2022-07-23T07:48:14;9.30;;;7.70;;
56599;SDS011;51832;48.152;11.530;2022-07-23T07:53:15;8.03;;;7.17;;
56599;SDS011;51832;48.152;11.530;2022-07-23T07:58:15;8.27;;;7.40;;
56599;SDS011;51832;48.152;11.530;2022-07-23T08:03:16;8.67;;;7.70;;
56599;SDS011;51832;48.152;11.530;2022-07-23T08:08:16;10.47;;;7.50;;
56599;SDS011;51832;48.152;11.530;2022-07-23T08:13:16;8.73;;;7.57;;
56599;SDS011;51832;48.152;11.530;2022-07-23T08:18:17;9.55;;;7.75;;
56599;SDS011;51832;48.152;11.530;2022-07-23T08:23:17;8.47;;;7.40;;
56599;SDS011;51832;48.152;11.530;2022-07-23T08:28:19;8.15;;;7.13;;
56599;SDS011;51832;48.152;11.530;2022-07-23T08:33:20;8.65;;;7.25;;
56599;SDS011;51832;48.152;11.530;2022-07-23T08:38:21;7.57;;;6.78;;
56599;SDS011;51832;48.152;11.530;2022-07-23T08:43:23;7.65;;;6.82;;
56599;SDS011;51832;48.152;11.530;2022-07-23T08:48:26;7.60;;;6.43;;
56599;SDS011;51832;48.152;11.530;2022-07-23T08:53:29;8.00;;;6.75;;
56599;SDS011;51832;48.152;11.530;2022-07-23T08:58:30;8.25;;;6.95;;
56599;SDS011;51832;48.152;11.530;2022-07-23T09:03:32;7.50;;;6.78;;
56599;SDS011;51832;48.152;11.530;2022-07-23T09:08:34;7.00;;;6.32;;
56599;SDS011;51832;48.152;11.530;2022-07-23T09:13:45;9.38;;;7.28;;
56599;SDS011;51832;48.152;11.530;2022-07-23T09:18:52;7.70;;;7.00;;
56599;SDS011;51832;48.152;11.530;2022-07-23T09:34:07;7.85;;;7.05;;
56599;SDS011;51832;48.152;11.530;2022-07-23T09:39:09;7.95;;;7.07;;
56599;SDS011;51832;48.152;11.530;2022-07-23T09:44:11;6.82;;;6.22;;
56599;SDS011;51832;48.152;11.530;2022-07-23T09:49:18;7.22;;;6.53;;
56599;SDS011;51832;48.152;11.530;2022-07-23T09:54:33;6.45;;;5.85;;
56599;SDS011;51832;48.152;11.530;2022-07-23T09:59:41;6.60;;;5.90;;
56599;SDS011;51832;48.152;11.530;2022-07-23T10:04:42;8.00;;;5.90;;
56599;SDS011;51832;48.152;11.530;2022-07-23T10:09:43;6.32;;;5.60;;
56599;SDS011;51832;48.152;11.530;2022-07-23T10:14:47;6.88;;;5.75;;
56599;SDS011;51832;48.152;11.530;2022-07-23T10:19:48;7.53;;;6.03;;
56599;SDS011;51832;48.152;11.530;2022-07-23T10:41:30;6.25;;;5.20;;
56599;SDS011;51832;48.152;11.530;2022-07-23T10:46:32;6.28;;;5.50;;
56599;SDS011;51832;48.152;11.530;2022-07-23T10:52:15;6.18;;;5.50;;
56599;SDS011;51832;48.152;11.530;2022-07-23T10:57:15;6.20;;;5.60;;
56599;SDS011;51832;48.152;11.530;2022-07-23T11:02:25;6.03;;;5.43;;
56599;SDS011;51832;48.152;11.530;2022-07-23T11:07:27;7.55;;;5.95;;
56599;SDS011;51832;48.152;11.530;2022-07-23T11:17:29;8.27;;;5.75;;
56599;SDS011;51832;48.152;11.530;2022-07-23T11:22:36;7.10;;;6.00;;
56599;SDS011;51832;48.152;11.530;2022-07-23T11:27:47;8.00;;;6.40;;
56599;SDS011;51832;48.152;11.530;2022-07-23T11:32:52;6.60;;;5.90;;
56599;SDS011;51832;48.152;11.530;2022-07-23T11:38:19;6.68;;;5.93;;
56599;SDS011;51832;48.152;11.530;2022-07-23T11:43:21;7.45;;;6.25;;
56599;SDS011;51832;48.152;11.530;2022-07-23T11:48:23;7.97;;;6.72;;
56599;SDS011;51832;48.152;11.530;2022-07-23T11:53:27;8.00;;;6.47;;
56599;SDS011;51832;48.152;11.530;2022-07-23T11:58:29;10.55;;;7.28;;
56599;SDS011;51832;48.152;11.530;2022-07-23T12:03:30;9.25;;;8.02;;
56599;SDS011;51832;48.152;11.530;2022-07-23T12:08:30;7.65;;;6.93;;
56599;SDS011;51832;48.152;11.530;2022-07-23T12:13:31;9.63;;;7.47;;
56599;SDS011;51832;48.152;11.530;2022-07-23T12:18:31;8.63;;;7.72;;
56599;SDS011;51832;48.152;11.530;2022-07-23T12:23:33;7.93;;;7.15;;
56599;SDS011;51832;48.152;11.530;2022-07-23T12:28:34;7.57;;;6.78;;
56599;SDS011;51832;48.152;11.530;2022-07-23T12:33:38;7.10;;;6.38;;
56599;SDS011;51832;48.152;11.530;2022-07-23T12:38:43;7.60;;;6.90;;
56599;SDS011;51832;48.152;11.530;2022-07-23T12:43:48;7.00;;;6.20;;
56599;SDS011;51832;48.152;11.530;2022-07-23T12:53:53;7.88;;;7.10;;
56599;SDS011;51832;48.152;11.530;2022-07-23T13:09:06;7.78;;;7.07;;
56599;SDS011;51832;48.152;11.530;2022-07-23T13:14:08;8.10;;;7.30;;
56599;SDS011;51832;48.152;11.530;2022-07-23T13:19:08;8.03;;;6.67;;
56599;SDS011;51832;48.152;11.530;2022-07-23T13:24:10;9.23;;;7.60;;
56599;SDS011;51832;48.152;11.530;2022-07-23T13:29:11;8.63;;;7.22;;
56599;SDS011;51832;48.152;11.530;2022-07-23T13:34:11;7.68;;;6.95;;
56599;SDS011;51832;48.152;11.530;2022-07-23T13:39:12;8.25;;;7.05;;
56599;SDS011;51832;48.152;11.530;2022-07-23T13:44:12;7.78;;;7.07;;
56599;SDS011;51832;48.152;11.530;2022-07-23T13:49:13;7.97;;;7.17;;
56599;SDS011;51832;48.152;11.530;2022-07-23T13:54:13;8.13;;;7.32;;
56599;SDS011;51832;48.152;11.530;2022-07-23T13:59:13;7.95;;;7.15;;
56599;SDS011;51832;48.152;11.530;2022-07-23T14:04:15;8.48;;;7.55;;
56599;SDS011;51832;48.152;11.530;2022-07-23T14:09:16;7.95;;;7.15;;
56599;SDS011;51832;48.152;11.530;2022-07-23T14:14:17;7.68;;;6.93;;
56599;SDS011;51832;48.152;11.530;2022-07-23T14:19:18;8.05;;;7.25;;
56599;SDS011;51832;48.152;11.530;2022-07-23T14:24:18;8.05;;;7.30;;
56599;SDS011;51832;48.152;11.530;2022-07-23T14:29:19;8.23;;;7.13;;
56599;SDS011;51832;48.152;11.530;2022-07-23T14:34:19;9.05;;;8.05;;
56599;SDS011;51832;48.152;11.530;2022-07-23T14:39:20;7.70;;;6.90;;
56599;SDS011;51832;48.152;11.530;2022-07-23T14:44:20;7.72;;;7.00;;
56599;SDS011;51832;48.152;11.530;2022-07-23T14:49:21;7.60;;;6.88;;
56599;SDS011;51832;48.152;11.530;2022-07-23T14:54:21;8.63;;;6.78;;
56599;SDS011;51832;48.152;11.530;2022-07-23T14:59:22;8.55;;;6.90;;
56599;SDS011;51832;48.152;11.530;2022-07-23T15:04:23;8.00;;;7.13;;
56599;SDS011;51832;48.152;11.530;2022-07-23T15:09:24;8.05;;;7.25;;
56599;SDS011;51832;48.152;11.530;2022-07-23T15:14:24;7.60;;;6.80;;
56599;SDS011;51832;48.152;11.530;2022-07-23T15:19:24;8.00;;;7.20;;
56599;SDS011;51832;48.152;11.530;2022-07-23T15:24:25;8.03;;;7.27;;
56599;SDS011;51832;48.152;11.530;2022-07-23T15:29:25;8.50;;;7.47;;
56599;SDS011;51832;48.152;11.530;2022-07-23T15:34:26;8.77;;;7.80;;
56599;SDS011;51832;48.152;11.530;2022-07-23T15:39:27;8.20;;;7.40;;
56599;SDS011;51832;48.152;11.530;2022-07-23T15:44:27;9.37;;;7.63;;
56599;SDS011;51832;48.152;11.530;2022-07-23T15:49:28;8.27;;;7.45;;
56599;SDS011;51832;48.152;11.530;2022-07-23T15:54:28;8.93;;;8.13;;
56599;SDS011;51832;48.152;11.530;2022-07-23T15:59:29;8.40;;;7.60;;
56599;SDS011;51832;48.152;11.530;2022-07-23T16:04:30;12.55;;;11.25;;
56599;SDS011;51832;48.152;11.530;2022-07-23T16:09:31;8.52;;;7.72;;
56599;SDS011;51832;48.152;11.530;2022-07-23T16:14:31;9.70;;;8.63;;
56599;SDS011;51832;48.152;11.530;2022-07-23T16:19:32;9.57;;;8.57;;
56599;SDS011;51832;48.152;11.530;2022-07-23T16:24:32;10.03;;;9.13;;
56599;SDS011;51832;48.152;11.530;2022-07-23T16:29:33;9.77;;;8.75;;
56599;SDS011;51832;48.152;11.530;2022-07-23T16:34:33;10.00;;;9.10;;
56599;SDS011;51832;48.152;11.530;2022-07-23T16:39:33;9.77;;;8.77;;
56599;SDS011;51832;48.152;11.530;2022-07-23T16:44:34;9.77;;;8.88;;
56599;SDS011;51832;48.152;11.530;2022-07-23T16:49:35;9.20;;;8.30;;
56599;SDS011;51832;48.152;11.530;2022-07-23T16:54:35;9.25;;;8.32;;
56599;SDS011;51832;48.152;11.530;2022-07-23T16:59:36;8.83;;;7.93;;
56599;SDS011;51832;48.152;11.530;2022-07-23T17:04:37;9.65;;;8.65;;
56599;SDS011;51832;48.152;11.530;2022-07-23T17:09:37;9.60;;;8.70;;
56599;SDS011;51832;48.152;11.530;2022-07-23T17:14:38;10.03;;;9.03;;
56599;SDS011;51832;48.152;11.530;2022-07-23T17:19:38;9.63;;;8.80;;
56599;SDS011;51832;48.152;11.530;2022-07-23T17:24:39;8.77;;;7.77;;
56599;SDS011;51832;48.152;11.530;2022-07-23T17:29:40;11.83;;;9.03;;
56599;SDS011;51832;48.152;11.530;2022-07-23T17:34:40;9.30;;;8.40;;
56599;SDS011;51832;48.152;11.530;2022-07-23T17:39:41;8.43;;;7.70;;
56599;SDS011;51832;48.152;11.530;2022-07-23T17:44:41;10.00;;;9.00;;
56599;SDS011;51832;48.152;11.530;2022-07-23T17:49:42;8.87;;;8.17;;
56599;SDS011;51832;48.152;11.530;2022-07-23T17:54:42;9.50;;;8.60;;
56599;SDS011;51832;48.152;11.530;2022-07-23T17:59:42;9.57;;;8.70;;
56599;SDS011;51832;48.152;11.530;2022-07-23T18:04:43;10.53;;;9.57;;
56599;SDS011;51832;48.152;11.530;2022-07-23T18:09:43;10.13;;;9.07;;
56599;SDS011;51832;48.152;11.530;2022-07-23T18:14:44;10.87;;;9.83;;
56599;SDS011;51832;48.152;11.530;2022-07-23T18:19:44;9.43;;;8.63;;
56599;SDS011;51832;48.152;11.530;2022-07-23T18:24:45;10.70;;;9.43;;
56599;SDS011;51832;48.152;11.530;2022-07-23T18:29:45;10.17;;;9.27;;
56599;SDS011;51832;48.152;11.530;2022-07-23T18:34:46;10.10;;;9.10;;
56599;SDS011;51832;48.152;11.530;2022-07-23T18:39:46;10.90;;;9.82;;
56599;SDS011;51832;48.152;11.530;2022-07-23T18:44:47;10.70;;;9.70;;
56599;SDS011;51832;48.152;11.530;2022-07-23T18:49:47;10.77;;;9.73;;
56599;SDS011;51832;48.152;11.530;2022-07-23T18:54:48;11.07;;;9.40;;
56599;SDS011;51832;48.152;11.530;2022-07-23T18:59:48;10.98;;;9.85;;
56599;SDS011;51832;48.152;11.530;2022-07-23T19:04:49;10.13;;;9.13;;
56599;SDS011;51832;48.152;11.530;2022-07-23T19:09:50;10.60;;;9.60;;
56599;SDS011;51832;48.152;11.530;2022-07-23T19:14:50;10.70;;;9.73;;
56599;SDS011;51832;48.152;11.530;2022-07-23T19:19:51;12.77;;;10.07;;
56599;SDS011;51832;48.152;11.530;2022-07-23T19:24:52;10.73;;;9.73;;
56599;SDS011;51832;48.152;11.530;2022-07-23T19:29:53;10.10;;;9.10;;
56599;SDS011;51832;48.152;11.530;2022-07-23T19:34:53;10.50;;;9.47;;
56599;SDS011;51832;48.152;11.530;2022-07-23T19:39:54;10.37;;;8.73;;
56599;SDS011;51832;48.152;11.530;2022-07-23T19:44:54;9.82;;;8.40;;
56599;SDS011;51832;48.152;11.530;2022-07-23T19:49:55;9.63;;;8.63;;
56599;SDS011;51832;48.152;11.530;2022-07-23T19:54:55;9.30;;;8.40;;
56599;SDS011;51832;48.152;11.530;2022-07-23T19:59:56;8.82;;;7.85;;
56599;SDS011;51832;48.152;11.530;2022-07-23T20:04:56;9.25;;;8.38;;
56599;SDS011;51832;48.152;11.530;2022-07-23T20:09:57;8.80;;;7.90;;
56599;SDS011;51832;48.152;11.530;2022-07-23T20:14:57;9.70;;;8.02;;
56599;SDS011;51832;48.152;11.530;2022-07-23T20:19:58;9.20;;;7.97;;
56599;SDS011;51832;48.152;11.530;2022-07-23T20:24:58;9.38;;;8.38;;
56599;SDS011;51832;48.152;11.530;2022-07-23T20:29:59;8.77;;;7.95;;
56599;SDS011;51832;48.152;11.530;2022-07-23T20:34:59;9.17;;;8.27;;
56599;SDS011;51832;48.152;11.530;2022-07-23T20:39:59;8.93;;;7.97;;
56599;SDS011;51832;48.152;11.530;2022-07-23T20:45:00;9.23;;;8.27;;
56599;SDS011;51832;48.152;11.530;2022-07-23T20:50:01;10.30;;;8.07;;
56599;SDS011;51832;48.152;11.530;2022-07-23T20:55:03;8.75;;;7.85;;
56599;SDS011;51832;48.152;11.530;2022-07-23T21:00:04;9.00;;;8.10;;
56599;SDS011;51832;48.152;11.530;2022-07-23T21:05:07;9.35;;;8.45;;
56599;SDS011;51832;48.152;11.530;2022-07-23T21:10:08;8.90;;;8.07;;
56599;SDS011;51832;48.152;11.530;2022-07-23T21:15:10;10.23;;;9.23;;
56599;SDS011;51832;48.152;11.530;2022-07-23T21:20:10;10.13;;;8.32;;
56599;SDS011;51832;48.152;11.530;2022-07-23T21:25:18;10.07;;;8.80;;
56599;SDS011;51832;48.152;11.530;2022-07-23T21:30:19;9.77;;;8.70;;
56599;SDS011;51832;48.152;11.530;2022-07-23T21:35:19;9.87;;;8.87;;
56599;SDS011;51832;48.152;11.530;2022-07-23T21:40:19;9.33;;;8.40;;
56599;SDS011;51832;48.152;11.530;2022-07-23T21:45:20;9.83;;;8.93;;
56599;SDS011;51832;48.152;11.530;2022-07-23T21:50:20;9.98;;;8.98;;
56599;SDS011;51832;48.152;11.530;2022-07-23T21:55:21;9.98;;;8.75;;
56599;SDS011;51832;48.152;11.530;2022-07-23T22:00:22;10.27;;;9.18;;
56599;SDS011;51832;48.152;11.530;2022-07-23T22:05:28;9.73;;;8.80;;
56599;SDS011;51832;48.152;11.530;2022-07-23T22:10:29;9.38;;;8.48;;
56599;SDS011;51832;48.152;11.530;2022-07-23T22:15:29;9.98;;;9.00;;
56599;SDS011;51832;48.152;11.530;2022-07-23T22:20:30;11.13;;;9.88;;
56599;SDS011;51832;48.152;11.530;2022-07-23T22:25:30;10.30;;;9.30;;
56599;SDS011;51832;48.152;11.530;2022-07-23T22:30:31;10.68;;;8.90;;
56599;SDS011;51832;48.152;11.530;2022-07-23T22:35:32;11.00;;;9.50;;
56599;SDS011;51832;48.152;11.530;2022-07-23T22:40:33;10.57;;;9.55;;
56599;SDS011;51832;48.152;11.530;2022-07-23T22:45:33;10.85;;;9.25;;
56599;SDS011;51832;48.152;11.530;2022-07-23T22:50:33;10.60;;;9.53;;
56599;SDS011;51832;48.152;11.530;2022-07-23T22:55:34;10.20;;;9.30;;
56599;SDS011;51832;48.152;11.530;2022-07-23T23:00:34;9.37;;;8.47;;
56599;SDS011;51832;48.152;11.530;2022-07-23T23:05:35;9.75;;;8.80;;
56599;SDS011;51832;48.152;11.530;2022-07-23T23:10:35;10.38;;;9.23;;
56599;SDS011;51832;48.152;11.530;2022-07-23T23:15:36;10.97;;;9.43;;
56599;SDS011;51832;48.152;11.530;2022-07-23T23:20:36;9.50;;;8.57;;
56599;SDS011;51832;48.152;11.530;2022-07-23T23:25:36;10.83;;;9.50;;
56599;SDS011;51832;48.152;11.530;2022-07-23T23:30:37;10.60;;;9.27;;
56599;SDS011;51832;48.152;11.530;2022-07-23T23:35:38;9.57;;;8.68;;
56599;SDS011;51832;48.152;11.530;2022-07-23T23:40:39;11.40;;;9.32;;
56599;SDS011;51832;48.152;11.530;2022-07-23T23:45:39;9.70;;;8.65;;
56599;SDS011;51832;48.152;11.530;2022-07-23T23:50:39;10.63;;;9.17;;
56599;SDS011;51832;48.152;11.530;2022-07-23T23:55:40;10.50;;;9.50;;
